Date,TemperatureHighF,TemperatureAvgF,TemperatureLowF,DewpointHighF,DewpointAvgF,DewpointLowF,HumidityHigh,HumidityAvg,HumidityLow,PressureMaxIn,PressureMinIn,WindSpeedMaxMPH,WindSpeedAvgMPH,GustSpeedMaxMPH,PrecipitationSumIn
2013-11-1,73.7,63.9,47.7,66.0,55.7,45.7,96,77,43,29.80,29.64,9,1,14,0.58
2013-11-2,66.5,52.3,40.4,51.6,43.0,39.0,96,74,41,30.09,29.79,15,1,16,0.00
2013-11-3,60.5,48.7,37.7,42.9,40.1,35.6,93,74,46,30.28,30.08,9,1,12,0.00
2013-11-4,65.3,51.4,34.3,45.1,40.4,33.0,95,69,44,30.40,30.28,12,1,14,0.00
2013-11-5,64.5,52.2,41.6,48.3,43.1,39.4,93,73,48,30.43,30.28,5,0,8,0.00
2013-11-6,71.9,58.9,45.6,60.4,53.7,43.4,95,84,66,30.29,30.03,8,1,13,0.04
2013-11-7,62.2,52.1,37.8,60.0,44.6,33.0,96,77,43,30.27,29.99,18,2,19,0.42
2013-11-8,58.0,43.3,31.9,35.2,31.1,27.6,92,66,32,30.39,30.26,11,1,13,0.00
2013-11-9,57.3,43.6,29.2,40.3,34.7,27.0,96,74,47,30.33,30.22,7,1,11,0.00
2013-11-10,69.8,51.9,38.8,47.5,40.7,35.2,94,69,31,30.30,30.20,12,1,13,0.00
2013-11-11,66.5,47.5,31.0,40.4,34.9,28.2,91,66,32,30.31,30.13,8,0,9,0.00
2013-11-12,53.2,42.4,31.6,43.7,31.5,16.0,86,66,44,30.54,30.12,19,3,22,0.00
2013-11-13,46.7,34.0,25.6,24.9,20.3,17.0,85,59,35,30.65,30.47,9,1,17,0.00
2013-11-14,58.1,35.7,20.3,32.8,23.8,17.8,91,67,28,30.50,30.28,6,0,8,0.00
2013-11-15,48.8,39.7,28.7,42.4,35.3,23.5,94,85,66,30.29,30.15,4,0,6,0.30
2013-11-16,59.8,49.4,44.0,56.5,47.8,42.0,100,94,88,30.21,30.08,5,0,7,0.01
2013-11-17,67.2,62.1,56.9,66.0,60.1,55.0,97,93,85,30.08,29.82,6,1,12,1.11
2013-11-18,67.1,58.4,42.6,65.8,44.8,35.0,96,63,36,30.13,29.82,11,2,21,0.08
2013-11-19,54.9,45.6,39.0,35.0,31.3,27.0,74,58,37,30.21,30.11,12,2,16,0.00
2013-11-20,60.2,44.5,29.6,40.0,34.2,27.0,93,70,40,30.30,30.16,6,1,10,0.00
2013-11-21,62.2,54.9,46.5,52.2,46.4,39.9,83,73,65,30.33,30.23,5,0,8,0.00
2013-11-22,58.6,56.0,53.4,56.0,53.7,51.3,96,92,83,30.29,30.16,9,1,12,0.10
2013-11-23,54.4,47.0,34.4,51.2,38.4,21.0,92,73,50,30.38,30.17,19,4,19,0.00
2013-11-24,39.2,31.0,24.4,22.4,16.1,11.0,69,55,32,30.56,30.38,12,2,21,0.00
2013-11-25,41.8,34.2,26.1,33.0,21.8,14.7,93,62,40,30.48,30.20,4,0,6,0.27
2013-11-26,43.9,37.9,33.3,42.5,36.1,31.5,95,93,86,30.20,29.74,11,1,13,1.99
2013-11-27,38.6,32.8,24.8,36.0,24.4,16.6,92,71,56,30.32,29.82,14,4,22,0.00
2013-11-28,44.9,30.3,18.1,27.8,21.5,15.5,90,71,47,30.49,30.32,5,1,8,0.00
2013-11-29,52.1,34.2,21.6,31.8,25.4,19.0,93,73,41,30.58,30.47,8,1,12,0.00
2013-11-30,55.4,36.8,23.9,35.6,28.1,21.9,95,74,39,30.54,30.30,9,0,10,0.01